.
WxDataArchive / Data Records for 2007-10-03
2007-10-02 October 2007 2007-10-04

Data Records for Wednesday, 03 October 2007

Time	Temp	Chill	HIndex	Humid	Dewpt	 Wind 	HiWind	WindDir	Rain 	Barom 
-----	----	-----	------	-----	-----	------	------	-------	-----	----- 
00:00	69.8	69.8	69.8	62	56.2	1	3	112	0.00	29.814 
00:05	69.8	69.8	69.8	62	56.2	1	4	292	0.00	29.811 
00:10	69.8	69.8	69.8	62	56.2	0	2	292	0.00	29.804 
00:15	69.8	69.8	69.8	62	56.2	1	5	68	0.00	29.802 
00:20	69.9	69.9	69.9	62	56.3	1	6	68	0.00	29.801 
00:25	70.1	70.1	70.1	61	56.0	1	6	292	0.00	29.803 
00:30	70.1	70.1	70.1	61	56.0	2	6	248	0.00	29.809 
00:35	70.3	70.3	70.3	61	56.2	1	6	248	0.00	29.809 
00:40	70.3	70.3	70.3	60	55.7	1	5	248	0.00	29.809 
00:45	70.3	70.3	70.3	60	55.7	1	4	248	0.00	29.810 
00:50	70.3	70.3	70.3	61	56.2	1	4	248	0.00	29.807 
00:55	70.3	70.3	70.3	61	56.2	1	3	248	0.00	29.803 
01:00	70.3	70.3	70.3	60	55.7	2	7	270	0.00	29.801 
01:05	70.3	70.3	70.3	60	55.7	1	7	248	0.00	29.796 
01:10	70.3	70.3	70.3	60	55.7	1	4	225	0.00	29.797 
01:15	70.3	70.3	70.3	60	55.7	2	9	90	0.00	29.797 
01:20	70.4	70.4	70.4	60	55.8	2	5	248	0.00	29.801 
01:25	70.4	70.4	70.4	59	55.4	2	10	248	0.00	29.800 
01:30	70.6	70.6	70.6	59	55.6	3	10	248	0.00	29.798 
01:35	70.8	70.8	70.8	59	55.7	3	9	248	0.00	29.791 
01:40	70.8	70.8	70.8	58	55.3	2	7	248	0.00	29.788 
01:45	70.8	70.8	70.8	58	55.3	3	7	270	0.00	29.787 
01:50	70.8	70.8	70.8	58	55.3	2	7	248	0.00	29.784 
01:55	70.8	70.8	70.8	58	55.3	1	7	270	0.00	29.781 
02:00	70.8	70.8	70.8	58	55.3	2	7	248	0.00	29.779 
02:05	70.6	70.6	70.6	58	55.1	2	9	248	0.00	29.775 
02:10	70.6	70.6	70.6	58	55.1	2	11	270	0.00	29.774 
02:15	70.4	70.4	70.4	58	54.9	2	7	248	0.00	29.777 
02:20	70.4	70.4	70.4	59	55.4	2	6	270	0.00	29.777 
02:25	70.4	70.4	70.4	59	55.4	2	7	248	0.00	29.770 
02:30	70.3	70.3	70.3	59	55.3	3	10	270	0.00	29.770 
02:35	70.4	70.4	70.4	58	54.9	2	7	270	0.00	29.773 
02:40	70.4	70.4	70.4	58	54.9	1	6	248	0.00	29.779 
02:45	70.4	70.4	70.4	58	54.9	1	5	248	0.00	29.781 
02:50	70.4	70.4	70.4	58	54.9	2	7	270	0.00	29.783 
02:55	70.6	70.6	70.6	58	55.1	2	6	248	0.00	29.782 
03:00	70.8	70.8	70.8	58	55.3	2	9	270	0.00	29.784 
03:05	70.8	70.8	70.8	58	55.3	2	4	292	0.00	29.782 
03:10	70.9	70.9	70.9	57	54.9	3	7	270	0.00	29.782 
03:15	71.1	71.1	71.1	57	55.1	2	9	270	0.00	29.782 
03:20	71.1	71.1	71.1	57	55.1	2	6	270	0.00	29.785 
03:25	71.3	71.3	71.3	57	55.3	2	6	248	0.00	29.794 
03:30	71.3	71.3	71.3	58	55.7	3	9	270	0.00	29.795 
03:35	71.3	71.3	71.3	59	56.2	2	6	248	0.00	29.798 
03:40	71.1	71.1	71.1	60	56.5	3	9	248	0.00	29.800 
03:45	70.8	70.8	70.8	61	56.7	3	9	270	0.00	29.803 
03:50	70.4	70.4	70.4	63	57.2	4	10	270	0.00	29.809 
03:55	70.1	70.1	70.1	64	57.3	4	10	270	0.00	29.808 
04:00	69.6	69.6	69.6	67	58.1	3	10	270	0.00	29.808 
04:05	68.9	68.9	68.9	69	58.3	4	11	248	0.00	29.809 
04:10	68.6	68.6	68.6	70	58.4	2	9	270	0.00	29.812 
04:15	68.1	68.1	68.1	71	58.3	2	7	248	0.00	29.817 
04:20	67.8	67.8	67.8	72	58.4	2	6	270	0.00	29.817 
04:25	67.6	67.6	67.6	72	58.2	3	7	270	0.00	29.818 
04:30	67.6	67.6	67.6	74	59.0	2	7	270	0.00	29.820 
04:35	67.3	67.3	67.3	75	59.1	3	7	270	0.00	29.824 
04:40	66.9	66.9	66.9	78	59.8	3	9	270	0.01	29.829 
04:45	66.0	66.0	66.0	82	60.3	3	7	270	0.00	29.832 
04:50	65.2	65.2	65.2	85	60.6	2	6	270	0.02	29.834 
04:55	64.5	64.5	64.5	88	60.9	3	7	248	0.03	29.834 
05:00	64.2	64.2	64.2	90	61.2	3	7	270	0.01	29.834 
05:05	64.0	64.0	64.0	92	61.6	2	4	270	0.00	29.832 
05:10	63.9	63.9	63.9	92	61.5	2	7	248	0.00	29.831 
05:15	63.9	63.9	63.9	92	61.5	2	5	248	0.00	29.831 
05:20	63.9	63.9	63.9	92	61.5	2	6	270	0.00	29.834 
05:25	63.9	63.9	63.9	92	61.5	3	7	248	0.00	29.834 
05:30	63.9	63.9	63.9	93	61.8	3	7	248	0.01	29.835 
05:35	63.7	63.7	63.7	93	61.6	2	4	270	0.01	29.838 
05:40	63.7	63.7	63.7	93	61.6	2	4	248	0.00	29.837 
05:45	63.5	63.5	63.5	94	61.7	1	5	248	0.00	29.838 
05:50	63.5	63.5	63.5	94	61.7	1	5	248	0.00	29.839 
05:55	63.5	63.5	63.5	94	61.7	2	5	248	0.00	29.843 
06:00	63.5	63.5	63.5	94	61.7	2	6	248	0.00	29.843 
06:05	63.5	63.5	63.5	95	62.0	2	11	225	0.00	29.843 
06:10	63.7	63.7	63.7	95	62.2	2	6	248	0.00	29.846 
06:15	63.7	63.7	63.7	95	62.2	3	6	248	0.00	29.849 
06:20	63.7	63.7	63.7	95	62.2	2	11	248	0.00	29.852 
06:25	63.9	63.9	63.9	95	62.4	3	6	248	0.00	29.852 
06:30	63.9	63.9	63.9	95	62.4	2	7	248	0.00	29.854 
06:35	63.9	63.9	63.9	95	62.4	2	5	248	0.00	29.855 
06:40	63.9	63.9	63.9	95	62.4	2	6	248	0.00	29.856 
06:45	64.0	64.0	64.0	95	62.5	2	7	270	0.00	29.858 
06:50	64.0	64.0	64.0	95	62.5	2	6	248	0.00	29.862 
06:55	64.0	64.0	64.0	95	62.5	2	5	248	0.00	29.866 
07:00	64.0	64.0	64.0	95	62.5	2	5	248	0.00	29.868 
07:05	64.2	64.2	64.2	95	62.7	2	5	248	0.00	29.870 
07:10	64.2	64.2	64.2	94	62.4	2	6	270	0.00	29.871 
07:15	64.2	64.2	64.2	94	62.4	2	9	270	0.00	29.876 
07:20	64.2	64.2	64.2	94	62.4	1	7	248	0.00	29.877 
07:25	64.3	64.3	64.3	94	62.5	1	4	248	0.00	29.881 
07:30	64.3	64.3	64.3	94	62.5	1	4	248	0.00	29.885 
07:35	64.3	64.3	64.3	94	62.5	1	5	248	0.00	29.886 
07:40	64.3	64.3	64.3	94	62.5	2	5	248	0.00	29.888 
07:45	64.5	64.5	64.5	94	62.7	2	6	270	0.00	29.889 
07:50	64.5	64.5	64.5	94	62.7	2	4	248	0.00	29.891 
07:55	64.7	64.7	64.7	94	62.9	1	4	248	0.00	29.895 
08:00	64.7	64.7	64.7	94	62.9	1	4	270	0.00	29.895 
08:05	64.8	64.8	64.8	94	63.0	1	3	270	0.00	29.900 
08:10	65.0	65.0	65.0	94	63.2	1	3	270	0.00	29.899 
08:15	65.0	65.0	65.0	93	62.9	1	3	248	0.00	29.900 
08:20	65.2	65.2	65.2	93	63.1	1	5	248	0.00	29.902 
08:25	65.2	65.2	65.2	93	63.1	1	3	248	0.00	29.903 
08:30	65.2	65.2	65.2	92	62.8	1	3	248	0.00	29.906 
08:35	65.3	65.3	65.3	92	62.9	1	3	292	0.00	29.909 
08:40	65.5	65.5	65.5	92	63.1	1	3	270	0.00	29.907 
08:45	65.8	65.8	65.8	92	63.4	1	3	270	0.00	29.907 
08:50	66.0	66.0	66.0	91	63.3	1	3	248	0.00	29.912 
08:55	66.0	66.0	66.0	90	63.0	1	5	248	0.00	29.907 
09:00	66.1	66.1	66.1	90	63.1	1	3	248	0.00	29.909 
09:05	66.1	66.1	66.1	89	62.8	1	4	270	0.00	29.912 
09:10	66.3	66.3	66.3	89	63.0	0	2	270	0.00	29.915 
09:15	66.3	66.3	66.3	89	63.0	1	2	270	0.00	29.915 
09:20	66.3	66.3	66.3	88	62.6	1	4	270	0.00	29.916 
09:25	66.3	66.3	66.3	88	62.6	1	3	270	0.00	29.919 
09:30	66.4	66.4	66.4	88	62.7	1	3	225	0.00	29.925 
09:35	66.4	66.4	66.4	87	62.4	0	2	248	0.00	29.924 
09:40	66.6	66.6	66.6	88	62.9	0	1	248	0.00	29.920 
09:45	66.8	66.8	66.8	87	62.8	0	3	248	0.00	29.922 
09:50	66.9	66.9	66.9	87	62.9	0	2	248	0.00	29.921 
09:55	67.3	67.3	67.3	86	63.0	0	2	248	0.00	29.922 
10:00	67.4	67.4	67.4	84	62.4	1	2	248	0.00	29.928 
10:05	67.8	67.8	67.8	84	62.8	1	2	248	0.00	29.930 
10:10	67.8	67.8	67.8	82	62.1	1	2	248	0.00	29.931 
10:15	67.9	67.9	67.9	81	61.8	1	3	248	0.00	29.931 
10:20	68.4	68.4	68.4	81	62.3	1	3	270	0.00	29.932 
10:25	68.8	68.8	68.8	80	62.4	1	3	270	0.00	29.938 
10:30	68.8	68.8	68.8	78	61.7	2	4	248	0.00	29.940 
10:35	69.1	69.1	69.1	76	61.2	2	3	292	0.00	29.937 
10:40	69.3	69.3	69.3	76	61.4	1	3	270	0.00	29.938 
10:45	69.1	69.1	69.1	73	60.1	1	3	315	0.00	29.941 
10:50	69.1	69.1	69.1	73	60.1	2	3	292	0.00	29.941 
10:55	68.9	68.9	68.9	71	59.1	2	4	292	0.00	29.938 
11:00	68.9	68.9	68.9	72	59.5	1	3	292	0.00	29.943 
11:05	69.3	69.3	69.3	72	59.9	2	3	270	0.00	29.943 
11:10	69.6	69.6	69.6	73	60.6	1	3	270	0.00	29.937 
11:15	69.4	69.4	69.4	71	59.6	1	2	315	0.00	29.944 
11:20	69.6	69.6	69.6	72	60.2	1	4	248	0.00	29.946 
11:25	69.6	69.6	69.6	73	60.6	1	3	292	0.00	29.943 
11:30	69.8	69.8	69.8	70	59.6	1	2	292	0.00	29.944 
11:35	69.4	69.4	69.4	69	58.8	1	3	292	0.00	29.944 
11:40	69.3	69.3	69.3	69	58.7	1	2	292	0.00	29.947 
11:45	69.1	69.1	69.1	70	58.9	1	3	292	0.00	29.948 
11:50	69.4	69.4	69.4	68	58.4	1	3	292	0.00	29.949 
11:55	69.4	69.4	69.4	69	58.8	1	4	248	0.00	29.950 
12:00	69.6	69.6	69.6	67	58.1	1	3	248	0.00	29.951 
12:05	69.6	69.6	69.6	68	58.6	1	3	248	0.00	29.955 
12:10	69.8	69.8	69.8	68	58.7	1	3	248	0.00	29.956 
12:15	69.8	69.8	69.8	69	59.2	1	2	315	0.00	29.957 
12:20	69.9	69.9	69.9	67	58.4	1	3	315	0.00	29.956 
12:25	70.3	70.3	70.3	66	58.4	2	4	248	0.00	29.954 
12:30	70.9	70.9	70.9	66	59.0	1	3	292	0.00	29.951 
12:35	71.6	71.6	71.6	64	58.8	1	2	315	0.00	29.949 
12:40	72.0	72.0	72.0	60	57.3	2	4	315	0.00	29.949 
12:45	72.3	72.3	72.3	62	58.5	2	3	270	0.00	29.952 
12:50	72.5	72.5	72.5	62	58.7	1	2	270	0.00	29.948 
12:55	72.8	72.8	72.8	58	57.1	1	4	248	0.00	29.946 
13:00	72.8	72.8	72.8	58	57.1	1	3	248	0.00	29.945 
13:05	72.7	72.7	72.7	53	54.6	1	3	270	0.00	29.942 
13:10	73.0	73.0	73.0	54	55.4	1	3	270	0.00	29.942 
13:15	73.0	73.0	73.0	55	55.9	1	3	270	0.00	29.940 
13:20	73.3	73.3	73.3	54	55.6	1	2	270	0.00	29.934 
13:25	73.2	73.2	73.2	54	55.5	1	3	270	0.00	29.928 
13:30	73.2	73.2	73.2	49	52.9	1	3	315	0.00	29.928 
13:35	73.5	73.5	73.5	51	54.2	1	2	270	0.00	29.928 
13:40	74.0	74.0	74.0	51	54.7	1	3	270	0.00	29.930 
13:45	74.4	74.4	74.4	51	55.1	1	3	292	0.00	29.932 
13:50	74.2	74.2	74.2	50	54.3	0	2	270	0.00	29.930 
13:55	74.4	74.4	74.4	49	54.0	1	3	315	0.00	29.932 
14:00	74.4	74.4	74.4	50	54.5	0	2	315	0.00	29.933 
14:05	74.6	74.6	74.6	51	55.3	0	2	315	0.00	29.928 
14:10	74.6	74.6	74.6	49	54.2	0	2	315	0.00	29.929 
14:15	74.6	74.6	74.6	49	54.2	0	2	315	0.00	29.928 
14:20	74.6	74.6	74.6	49	54.2	0	2	315	0.00	29.928 
14:25	74.6	74.6	74.6	50	54.7	0	2	315	0.00	29.928 
14:30	74.7	74.7	74.7	49	54.3	0	2	315	0.00	29.928 
14:35	74.9	74.9	74.9	48	53.9	0	3	292	0.00	29.927 
14:40	74.9	74.9	74.9	48	53.9	0	2	292	0.00	29.930 
14:45	75.1	75.1	77.7	49	54.6	0	2	292	0.00	29.930 
14:50	75.4	75.4	77.8	49	54.9	0	1	292	0.00	29.929 
14:55	75.6	75.6	77.9	48	54.5	0	1	292	0.00	29.927 
15:00	75.8	75.8	78.0	48	54.7	0	2	292	0.00	29.927 
15:05	76.0	76.0	78.0	48	54.9	0	1	292	0.00	29.927 
15:10	75.8	75.8	77.9	46	53.5	0	2	292	0.00	29.927 
15:15	75.6	75.6	77.8	46	53.3	0	2	292	0.00	29.928 
15:20	75.6	75.6	77.9	48	54.5	0	1	292	0.00	29.928 
15:25	76.0	76.0	78.0	48	54.9	1	3	292	0.00	29.927 
15:30	76.1	76.1	78.1	48	55.0	1	2	248	0.00	29.927 
15:35	76.0	76.0	78.0	48	54.9	0	3	248	0.00	29.927 
15:40	75.6	75.6	77.9	48	54.5	1	3	68	0.00	29.927 
15:45	75.6	75.6	77.9	49	55.1	0	2	45	0.00	29.929 
15:50	75.4	75.4	77.8	46	53.2	0	3	22	0.00	29.930 
15:55	75.3	75.3	77.7	48	54.2	0	2	22	0.00	29.932 
16:00	74.9	74.9	74.9	49	54.4	1	4	112	0.00	29.931 
16:05	75.1	75.1	77.7	47	53.5	0	2	270	0.00	29.935 
16:10	75.1	75.1	77.7	49	54.6	0	0	---	0.00	29.934 
16:15	75.3	75.3	77.7	48	54.2	0	1	270	0.00	29.936 
16:20	75.3	75.3	77.7	46	53.1	0	1	292	0.00	29.937 
16:25	75.1	75.1	77.7	46	52.9	0	1	292	0.00	29.940 
16:30	75.1	75.1	77.7	46	52.9	0	1	292	0.00	29.943 
16:35	74.9	74.9	74.9	45	52.1	0	1	292	0.00	29.946 
16:40	74.9	74.9	74.9	43	50.9	0	1	292	0.00	29.947 
16:45	74.7	74.7	74.7	44	51.3	0	1	270	0.00	29.948 
16:50	74.9	74.9	74.9	42	50.2	0	1	270	0.00	29.950 
16:55	74.9	74.9	74.9	41	49.6	0	1	270	0.00	29.950 
17:00	74.9	74.9	74.9	44	51.5	0	1	270	0.00	29.951 
17:05	74.9	74.9	74.9	43	50.9	0	1	270	0.00	29.954 
17:10	74.7	74.7	74.7	42	50.1	0	0	---	0.00	29.952 
17:15	74.6	74.6	74.6	43	50.6	0	0	---	0.00	29.953 
17:20	74.4	74.4	74.4	43	50.4	0	0	---	0.00	29.957 
17:25	74.0	74.0	74.0	41	48.8	0	1	270	0.00	29.957 
17:30	73.9	73.9	73.9	44	50.6	0	0	---	0.00	29.959 
17:35	73.7	73.7	73.7	45	51.0	0	0	---	0.00	29.960 
17:40	73.3	73.3	73.3	45	50.7	0	0	---	0.00	29.964 
17:45	73.0	73.0	73.0	47	51.6	0	0	---	0.00	29.965 
17:50	72.3	72.3	72.3	46	50.3	0	0	---	0.00	29.965 
17:55	72.0	72.0	72.0	47	50.7	0	0	---	0.00	29.964 
18:00	71.5	71.5	71.5	48	50.8	0	0	---	0.00	29.965 
18:05	70.9	70.9	70.9	53	52.9	0	0	---	0.00	29.967 
18:10	70.3	70.3	70.3	54	52.9	0	0	---	0.00	29.967 
18:15	69.6	69.6	69.6	53	51.7	0	0	---	0.00	29.967 
18:20	68.9	68.9	68.9	54	51.6	0	0	---	0.00	29.969 
18:25	68.3	68.3	68.3	54	51.0	0	0	---	0.00	29.970 
18:30	67.8	67.8	67.8	57	52.0	0	0	---	0.00	29.969 
18:35	67.1	67.1	67.1	59	52.3	0	0	---	0.00	29.971 
18:40	66.6	66.6	66.6	62	53.2	0	0	---	0.00	29.971 
18:45	66.0	66.0	66.0	62	52.6	0	0	---	0.00	29.972 
18:50	65.5	65.5	65.5	64	53.0	0	0	---	0.00	29.973 
18:55	64.8	64.8	64.8	64	52.3	0	0	---	0.00	29.976 
19:00	64.2	64.2	64.2	66	52.6	0	0	---	0.00	29.976 
19:05	63.7	63.7	63.7	68	52.9	0	0	---	0.00	29.977 
19:10	63.4	63.4	63.4	69	53.0	0	0	---	0.00	29.977 
19:15	63.1	63.1	63.1	70	53.2	0	0	---	0.00	29.979 
19:20	62.6	62.6	62.6	71	53.1	0	0	---	0.00	29.980 
19:25	62.3	62.3	62.3	72	53.2	0	0	---	0.00	29.986 
19:30	62.0	62.0	62.0	71	52.5	0	0	---	0.00	29.987 
19:35	61.5	61.5	61.5	72	52.4	0	0	---	0.00	29.989 
19:40	61.3	61.3	61.3	73	52.6	0	0	---	0.00	29.989 
19:45	61.2	61.2	61.2	74	52.8	0	0	---	0.00	29.989 
19:50	61.0	61.0	61.0	75	53.0	0	0	---	0.00	29.990 
19:55	60.9	60.9	60.9	75	52.9	0	0	---	0.00	29.992 
20:00	60.5	60.5	60.5	75	52.5	0	0	---	0.00	29.992 
20:05	60.4	60.4	60.4	74	52.1	0	0	---	0.00	29.995 
20:10	60.1	60.1	60.1	75	52.1	0	0	---	0.00	29.997 
20:15	59.6	59.6	59.6	75	51.7	0	0	---	0.00	30.001 
20:20	59.3	59.3	59.3	76	51.7	0	0	---	0.00	30.002 
20:25	59.0	59.0	59.0	77	51.8	0	0	---	0.00	30.005 
20:30	58.7	58.7	58.7	77	51.5	0	0	---	0.00	30.006 
20:35	58.4	58.4	58.4	78	51.6	0	0	---	0.00	30.007 
20:40	58.3	58.3	58.3	79	51.8	0	0	---	0.00	30.008 
20:45	58.1	58.1	58.1	80	52.0	0	0	---	0.00	30.008 
20:50	57.8	57.8	57.8	81	52.0	0	0	---	0.00	30.010 
20:55	57.6	57.6	57.6	82	52.1	0	0	---	0.00	30.012 
21:00	57.5	57.5	57.5	82	52.0	0	0	---	0.00	30.018 
21:05	57.5	57.5	57.5	82	52.0	0	0	---	0.00	30.021 
21:10	57.3	57.3	57.3	83	52.2	0	0	---	0.00	30.022 
21:15	57.2	57.2	57.2	83	52.1	0	0	---	0.00	30.022 
21:20	56.9	56.9	56.9	83	51.8	0	0	---	0.00	30.022 
21:25	56.7	56.7	56.7	84	51.9	0	0	---	0.00	30.021 
21:30	56.6	56.6	56.6	84	51.8	0	0	---	0.00	30.019 
21:35	56.3	56.3	56.3	85	51.8	0	0	---	0.00	30.017 
21:40	56.2	56.2	56.2	86	52.1	0	0	---	0.00	30.019 
21:45	56.2	56.2	56.2	86	52.1	0	0	---	0.00	30.019 
21:50	56.0	56.0	56.0	86	51.9	0	0	---	0.00	30.021 
21:55	56.0	56.0	56.0	87	52.2	0	0	---	0.00	30.021 
22:00	56.0	56.0	56.0	87	52.2	0	0	---	0.00	30.022 
22:05	56.0	56.0	56.0	87	52.2	0	0	---	0.00	30.020 
22:10	56.0	56.0	56.0	87	52.2	0	0	---	0.00	30.020 
22:15	55.9	55.9	55.9	87	52.1	0	0	---	0.00	30.020 
22:20	55.7	55.7	55.7	87	51.9	0	0	---	0.00	30.019 
22:25	55.6	55.6	55.6	88	52.1	0	0	---	0.00	30.019 
22:30	55.4	55.4	55.4	88	51.9	0	0	---	0.00	30.017 
22:35	55.3	55.3	55.3	88	51.8	0	0	---	0.00	30.018 
22:40	55.0	55.0	55.0	89	51.8	0	0	---	0.00	30.019 
22:45	54.8	54.8	54.8	89	51.6	0	0	---	0.00	30.019 
22:50	54.7	54.7	54.7	89	51.5	0	0	---	0.00	30.018 
22:55	54.5	54.5	54.5	90	51.6	0	0	---	0.00	30.019 
23:00	54.5	54.5	54.5	90	51.6	0	0	---	0.00	30.019 
23:05	54.4	54.4	54.4	90	51.5	0	0	---	0.00	30.020 
23:10	54.2	54.2	54.2	90	51.3	0	0	---	0.00	30.022 
23:15	54.1	54.1	54.1	91	51.5	0	0	---	0.00	30.021 
23:20	54.1	54.1	54.1	91	51.5	0	0	---	0.00	30.021 
23:25	53.9	53.9	53.9	91	51.3	0	0	---	0.00	30.021 
23:30	53.8	53.8	53.8	92	51.5	0	0	---	0.00	30.019 
23:35	53.8	53.8	53.8	92	51.5	0	0	---	0.00	30.018 
23:40	53.8	53.8	53.8	92	51.5	0	0	---	0.00	30.012 
23:45	53.8	53.8	53.8	92	51.5	0	0	---	0.00	30.014 
23:50	53.8	53.8	53.8	92	51.5	0	0	---	0.00	30.014 
23:55	53.9	53.9	53.9	92	51.6	0	0	---	0.00	30.016 

CoCoRaHS
IN-AL-39
A2 Web Hosting
Creative Commons License
GoDaddy
Look for:

loaded 2017-12-11 12:13:01 • last modified 2010-11-18 10:43:29
Privacy PolicyDisclaimer
• wx.awcolley.com is powered by PmWiki v.2002016 •
• all content (unless otherwise noted) © 2017 A W Colley